createdAt,value
2023-04-16T00:01:52.412Z,17.65
2023-04-16T00:04:21.718Z,17.16
2023-04-16T00:06:51.265Z,17.27
2023-04-16T00:09:20.495Z,17.16
2023-04-16T00:11:50.023Z,17.13
2023-04-16T00:14:19.197Z,17.11
2023-04-16T00:16:48.562Z,17.19
2023-04-16T00:19:19.228Z,17.63
2023-04-16T00:21:48.747Z,17.82
2023-04-16T00:24:17.946Z,18.01
2023-04-16T00:26:47.378Z,17.81
2023-04-16T00:29:17.208Z,17.64
2023-04-16T00:31:46.663Z,17.52
2023-04-16T00:34:15.935Z,17.51
2023-04-16T00:36:46.726Z,17.41
2023-04-16T00:39:16.182Z,17.25
2023-04-16T00:41:46.197Z,17.20
2023-04-16T00:44:15.399Z,17.42
2023-04-16T00:46:45.370Z,17.42
2023-04-16T00:49:14.957Z,17.43
2023-04-16T00:51:46.007Z,17.47
2023-04-16T00:54:15.145Z,17.00
2023-04-16T00:56:45.193Z,16.94
2023-04-16T00:59:17.649Z,17.13
2023-04-16T01:01:47.354Z,17.40
2023-04-16T01:04:17.031Z,17.26
2023-04-16T01:06:48.102Z,17.45
2023-04-16T01:09:18.013Z,17.42
2023-04-16T01:11:47.428Z,17.47
2023-04-16T01:14:16.482Z,17.38
2023-04-16T01:16:45.940Z,17.15
2023-04-16T01:19:15.129Z,17.19
2023-04-16T01:21:45.934Z,17.38
2023-04-16T01:24:14.950Z,17.03
2023-04-16T01:26:44.343Z,17.13
2023-04-16T01:29:13.545Z,16.77
2023-04-16T01:31:42.940Z,16.95
2023-04-16T01:34:44.545Z,16.79
2023-04-16T01:37:15.904Z,17.23
2023-04-16T01:39:45.093Z,17.13
2023-04-16T01:42:14.500Z,17.31
2023-04-16T01:44:43.699Z,17.25
2023-04-16T01:47:13.116Z,17.13
2023-04-16T01:49:42.577Z,16.64
2023-04-16T01:52:12.165Z,16.96
2023-04-16T01:54:42.888Z,17.08
2023-04-16T01:57:12.516Z,17.31
2023-04-16T01:59:41.816Z,17.13
2023-04-16T02:02:13.127Z,17.34
2023-04-16T02:04:43.532Z,17.03
2023-04-16T02:07:13.859Z,16.70
2023-04-16T02:09:44.912Z,16.82
2023-04-16T02:12:14.593Z,16.33
2023-04-16T02:14:43.905Z,16.83
2023-04-16T02:17:15.754Z,16.95
2023-04-16T02:19:46.426Z,16.88
2023-04-16T02:22:15.825Z,16.61
2023-04-16T02:24:46.373Z,16.82
2023-04-16T02:27:16.064Z,16.94
2023-04-16T02:29:45.159Z,16.90
2023-04-16T02:36:25.681Z,16.64
2023-04-16T02:38:56.871Z,16.60
2023-04-16T02:41:27.858Z,16.34
2023-04-16T02:43:57.294Z,16.11
2023-04-16T02:46:27.003Z,16.49
2023-04-16T02:48:56.326Z,16.73
2023-04-16T02:51:26.436Z,17.00
2023-04-16T02:53:55.484Z,17.10
2023-04-16T02:56:26.427Z,16.76
2023-04-16T02:58:55.563Z,16.87
2023-04-16T03:01:24.963Z,16.81
2023-04-16T03:03:54.241Z,16.57
2023-04-16T03:06:23.657Z,16.76
2023-04-16T03:08:52.820Z,16.93
2023-04-16T03:11:22.154Z,16.92
2023-04-16T03:13:52.675Z,16.74
2023-04-16T03:16:22.537Z,16.79
2023-04-16T03:18:52.052Z,16.19
2023-04-16T03:21:21.539Z,16.30
2023-04-16T03:23:50.606Z,16.31
2023-04-16T03:26:20.069Z,16.28
2023-04-16T03:28:49.583Z,16.34
2023-04-16T03:31:20.722Z,16.54
2023-04-16T03:33:50.144Z,16.41
2023-04-16T03:36:19.569Z,16.09
2023-04-16T03:38:49.202Z,15.94
2023-04-16T03:41:19.262Z,15.30
2023-04-16T03:43:48.761Z,15.91
2023-04-16T03:46:20.584Z,15.81
2023-04-16T03:48:49.735Z,15.95
2023-04-16T03:51:19.872Z,16.41
2023-04-16T03:53:48.973Z,16.25
2023-04-16T03:56:19.050Z,16.43
2023-04-16T03:58:48.226Z,16.28
2023-04-16T04:01:18.993Z,16.30
2023-04-16T04:03:49.222Z,15.94
2023-04-16T04:06:19.008Z,16.30
2023-04-16T04:08:48.230Z,15.79
2023-04-16T04:11:18.225Z,15.76
2023-04-16T04:13:47.433Z,16.50
2023-04-16T04:16:17.046Z,16.01
2023-04-16T04:18:47.560Z,15.88
2023-04-16T04:21:17.095Z,16.02
2023-04-16T04:23:46.277Z,16.44
2023-04-16T04:26:15.826Z,16.47
2023-04-16T04:28:45.037Z,16.47
2023-04-16T04:31:14.424Z,15.72
2023-04-16T04:33:47.298Z,16.01
2023-04-16T04:36:16.752Z,16.22
2023-04-16T04:38:45.905Z,16.01
2023-04-16T04:41:15.358Z,16.07
2023-04-16T04:43:44.602Z,16.10
2023-04-16T04:46:15.384Z,15.58
2023-04-16T04:48:46.036Z,16.35
2023-04-16T04:51:15.538Z,16.41
2023-04-16T04:53:46.585Z,15.81
2023-04-16T04:56:16.182Z,16.45
2023-04-16T04:58:45.254Z,16.42
2023-04-16T05:01:14.796Z,16.02
2023-04-16T05:03:44.166Z,16.18
2023-04-16T05:06:18.576Z,16.52
2023-04-16T05:08:47.738Z,16.03
2023-04-16T05:11:17.271Z,16.08
2023-04-16T05:13:46.313Z,16.50
2023-04-16T05:16:16.361Z,16.49
2023-04-16T05:18:45.697Z,16.46
2023-04-16T05:21:15.028Z,16.80
2023-04-16T05:23:45.501Z,16.03
2023-04-16T05:26:14.985Z,16.83
2023-04-16T05:28:44.167Z,16.70
2023-04-16T05:31:13.595Z,16.79
2023-04-16T05:33:42.780Z,16.60
2023-04-16T05:36:12.153Z,16.70
2023-04-16T05:38:41.329Z,16.45
2023-04-16T05:41:12.254Z,16.72
2023-04-16T05:43:41.480Z,16.42
2023-04-16T05:46:11.046Z,16.74
2023-04-16T05:48:40.123Z,16.94
2023-04-16T05:51:09.618Z,17.42
2023-04-16T05:53:38.667Z,17.42
2023-04-16T05:56:08.896Z,16.40
2023-04-16T05:58:39.388Z,16.08
2023-04-16T06:01:08.821Z,16.73
2023-04-16T06:03:38.184Z,17.00
2023-04-16T06:06:08.942Z,17.22
2023-04-16T06:08:38.379Z,16.85
2023-04-16T06:11:07.800Z,17.37
2023-04-16T06:13:38.700Z,17.19
2023-04-16T06:16:08.991Z,17.10
2023-04-16T06:18:38.034Z,16.96
2023-04-16T06:21:07.651Z,16.99
2023-04-16T06:23:36.745Z,17.46
2023-04-16T06:26:06.894Z,16.91
2023-04-16T06:28:36.115Z,17.02
2023-04-16T06:31:07.220Z,17.13
2023-04-16T06:33:36.485Z,17.43
2023-04-16T06:36:06.511Z,17.05
2023-04-16T06:38:35.656Z,16.94
2023-04-16T06:41:05.930Z,17.52
2023-04-16T06:43:35.012Z,17.09
2023-04-16T06:46:06.003Z,17.58
2023-04-16T06:48:35.135Z,17.50
2023-04-16T06:51:04.824Z,17.20
2023-04-16T06:53:34.202Z,16.78
2023-04-16T06:56:03.667Z,16.36
2023-04-16T06:58:32.941Z,17.08
2023-04-16T07:01:03.674Z,17.23
2023-04-16T07:03:34.454Z,17.57
2023-04-16T07:06:04.300Z,17.73
2023-04-16T07:08:38.959Z,17.93
2023-04-16T07:11:08.581Z,18.01
2023-04-16T07:13:37.675Z,18.05
2023-04-16T07:16:07.469Z,17.67
2023-04-16T07:18:38.214Z,18.14
2023-04-16T07:21:08.072Z,16.92
2023-04-16T07:23:37.157Z,17.13
2023-04-16T07:26:06.755Z,17.64
2023-04-16T07:28:35.872Z,17.79
2023-04-16T07:31:05.430Z,18.15
2023-04-16T07:33:34.683Z,17.86
2023-04-16T07:36:05.804Z,17.97
2023-04-16T07:38:35.271Z,17.53
2023-04-16T07:41:04.837Z,17.22
2023-04-16T07:43:33.879Z,17.25
2023-04-16T07:46:03.531Z,17.68
2023-04-16T07:48:32.850Z,17.09
2023-04-16T07:51:02.356Z,17.34
2023-04-16T07:53:32.976Z,17.13
2023-04-16T07:56:02.425Z,17.01
2023-04-16T07:58:31.644Z,17.61
2023-04-16T08:01:01.448Z,17.22
2023-04-16T08:03:30.942Z,17.35
2023-04-16T08:06:00.628Z,17.77
2023-04-16T08:08:31.732Z,17.79
2023-04-16T08:11:01.290Z,17.84
2023-04-16T08:13:31.810Z,17.88
2023-04-16T08:16:02.959Z,17.96
2023-04-16T08:18:32.278Z,17.25
2023-04-16T08:21:01.716Z,17.69
2023-04-16T08:23:32.154Z,18.23
2023-04-16T08:26:02.177Z,17.57
2023-04-16T08:28:31.528Z,18.15
2023-04-16T08:31:01.121Z,18.38
2023-04-16T08:33:30.361Z,19.00
2023-04-16T08:35:59.827Z,19.12
2023-04-16T08:38:28.918Z,19.29
2023-04-16T08:41:03.877Z,19.36
2023-04-16T08:43:38.498Z,19.84
2023-04-16T08:46:08.908Z,20.00
2023-04-16T08:48:39.994Z,20.14
2023-04-16T08:51:12.220Z,20.90
2023-04-16T08:53:50.347Z,20.84
2023-04-16T08:56:24.168Z,19.65
2023-04-16T08:58:55.702Z,19.16
2023-04-16T09:01:26.926Z,19.73
2023-04-16T09:03:56.890Z,19.43
2023-04-16T09:06:26.681Z,19.42
2023-04-16T09:08:58.178Z,19.13
2023-04-16T09:11:29.349Z,18.95
2023-04-16T09:13:59.426Z,19.32
2023-04-16T09:16:34.878Z,19.18
2023-04-16T09:19:04.147Z,19.38
2023-04-16T09:21:33.562Z,18.95
2023-04-16T09:24:06.588Z,18.95
2023-04-16T09:26:37.843Z,18.73
2023-04-16T09:29:06.982Z,17.75
2023-04-16T09:31:36.438Z,18.48
2023-04-16T09:34:07.706Z,19.02
2023-04-16T09:36:37.953Z,19.15
2023-04-16T09:39:07.261Z,19.20
2023-04-16T09:41:39.771Z,18.57
2023-04-16T09:44:08.905Z,18.72
2023-04-16T09:46:42.300Z,18.82
2023-04-16T09:49:14.814Z,18.71
2023-04-16T09:51:44.857Z,19.25
2023-04-16T09:54:14.122Z,19.41
2023-04-16T09:56:47.080Z,19.55
2023-04-16T09:59:19.507Z,20.19
2023-04-16T10:01:49.966Z,19.32
2023-04-16T10:04:19.825Z,19.68
2023-04-16T10:07:05.511Z,20.19
2023-04-16T10:09:38.645Z,19.84
2023-04-16T14:31:53.331Z,16.65
2023-04-16T14:34:22.820Z,17.80
2023-04-16T14:36:52.509Z,18.08
2023-04-16T14:39:22.142Z,17.62
2023-04-16T14:41:51.222Z,18.09
2023-04-16T14:44:20.559Z,18.46
2023-04-16T14:46:49.785Z,18.65
2023-04-16T14:49:20.820Z,18.62
2023-04-16T14:51:49.992Z,18.35
2023-04-16T14:54:20.191Z,18.12
2023-04-16T14:56:49.491Z,18.42
2023-04-16T14:59:18.988Z,18.91
2023-04-16T15:01:48.465Z,18.44
2023-04-16T15:04:19.407Z,18.41
2023-04-16T15:06:48.775Z,18.95
2023-04-16T15:09:18.325Z,18.98
2023-04-16T15:11:47.569Z,19.23
2023-04-16T15:14:16.909Z,19.17
2023-04-16T15:16:46.192Z,19.38
2023-04-16T15:19:15.871Z,18.81
2023-04-16T15:21:48.651Z,19.13
2023-04-16T15:24:18.378Z,19.22
2023-04-16T15:26:47.743Z,18.65
2023-04-16T15:29:17.297Z,19.04
2023-04-16T15:31:46.387Z,19.52
2023-04-16T15:34:15.960Z,19.65
2023-04-16T15:36:46.450Z,19.45
2023-04-16T15:39:15.936Z,19.00
2023-04-16T15:42:00.075Z,19.49
2023-04-16T15:44:31.222Z,19.20
2023-04-16T15:47:00.910Z,19.79
2023-04-16T15:49:30.436Z,19.50
2023-04-16T15:52:01.576Z,19.91
2023-04-16T15:54:31.831Z,19.09
2023-04-16T15:57:01.101Z,19.59
2023-04-16T15:59:30.755Z,19.38
2023-04-16T16:02:00.465Z,18.65
2023-04-16T16:04:30.215Z,18.81
2023-04-16T16:07:02.651Z,19.02
2023-04-16T16:09:32.544Z,19.25
2023-04-16T16:12:01.709Z,19.50
2023-04-16T16:14:31.171Z,18.68
2023-04-16T16:17:00.388Z,18.86
2023-04-16T16:19:29.778Z,18.87
2023-04-16T16:22:00.199Z,18.49
2023-04-16T16:24:29.764Z,18.19
2023-04-16T16:26:59.121Z,17.93
2023-04-16T16:29:28.656Z,17.70
2023-04-16T16:31:58.125Z,17.40
2023-04-16T16:34:27.932Z,17.40
2023-04-16T16:36:57.364Z,17.92
2023-04-16T16:39:28.174Z,17.52
2023-04-16T16:41:57.824Z,17.51
2023-04-16T16:44:27.794Z,17.57
2023-04-16T16:46:57.082Z,17.17
2023-04-16T16:49:26.829Z,17.26
2023-04-16T16:51:56.027Z,17.83
2023-04-16T16:54:25.564Z,17.53
2023-04-16T16:56:56.795Z,16.65
2023-04-16T16:59:26.421Z,16.90
2023-04-16T17:01:55.637Z,16.92
2023-04-16T17:04:25.164Z,16.93
2023-04-16T17:06:54.599Z,16.67
2023-04-16T17:09:24.472Z,16.64
2023-04-16T17:11:55.002Z,17.09
2023-04-16T17:14:24.728Z,16.81
2023-04-16T17:16:54.647Z,17.21
2023-04-16T17:19:24.428Z,16.83
2023-04-16T17:21:53.889Z,16.72
2023-04-16T17:24:23.705Z,16.57
2023-04-16T17:26:53.074Z,16.37
2023-04-16T17:29:26.223Z,15.37
2023-04-16T17:31:55.821Z,16.05
2023-04-16T17:34:25.639Z,15.75
2023-04-16T17:36:54.879Z,16.19
2023-04-16T17:39:24.282Z,16.32
2023-04-16T17:41:57.334Z,16.32
2023-04-16T17:44:28.566Z,16.06
2023-04-16T17:46:58.108Z,15.73
2023-04-16T17:49:27.570Z,16.00
2023-04-16T17:51:57.585Z,16.09
2023-04-16T17:54:27.213Z,15.94
2023-04-16T17:56:57.545Z,15.47
2023-04-16T17:59:28.444Z,15.57
2023-04-16T18:01:58.010Z,15.64
2023-04-16T18:04:27.875Z,15.51
2023-04-16T18:06:57.243Z,15.81
2023-04-16T18:09:27.437Z,15.78
2023-04-16T18:11:57.261Z,15.51
2023-04-16T18:14:28.110Z,15.72
2023-04-16T18:16:58.302Z,15.72
2023-04-16T18:19:28.436Z,15.72
2023-04-16T18:21:58.696Z,15.81
2023-04-16T18:24:28.466Z,15.84
2023-04-16T18:26:57.961Z,15.65
2023-04-16T18:29:29.336Z,15.78
2023-04-16T18:31:59.129Z,15.93
2023-04-16T18:34:29.821Z,15.77
2023-04-16T18:36:59.279Z,15.78
2023-04-16T18:39:29.201Z,15.30
2023-04-16T18:41:58.648Z,15.33
2023-04-16T18:44:29.620Z,15.07
2023-04-16T18:47:01.648Z,15.56
2023-04-16T18:49:31.276Z,15.57
2023-04-16T18:52:02.097Z,15.70
2023-04-16T18:54:34.346Z,15.45
2023-04-16T18:57:03.622Z,15.42
2023-04-16T18:59:35.174Z,15.45
2023-04-16T19:02:04.897Z,15.20
2023-04-16T19:04:35.820Z,15.27
2023-04-16T19:07:05.296Z,15.13
2023-04-16T19:09:34.893Z,15.31
2023-04-16T19:12:04.962Z,15.63
2023-04-16T19:14:35.858Z,15.65
2023-04-16T19:17:05.263Z,15.71
2023-04-16T19:19:35.693Z,15.63
2023-04-16T19:22:04.945Z,15.42
2023-04-16T19:24:34.445Z,15.61
2023-04-16T19:27:03.690Z,15.70
2023-04-16T19:29:37.087Z,15.56
2023-04-16T19:32:06.617Z,15.42
2023-04-16T19:34:36.293Z,15.42
2023-04-16T19:37:05.457Z,15.63
2023-04-16T19:39:35.155Z,15.38
2023-04-16T19:42:04.300Z,15.49
2023-04-16T19:44:37.803Z,15.46
2023-04-16T19:47:07.306Z,15.11
2023-04-16T19:49:36.917Z,15.16
2023-04-16T19:52:06.157Z,15.19
2023-04-16T19:54:37.317Z,15.39
2023-04-16T19:57:06.602Z,15.40
2023-04-16T19:59:38.338Z,15.54
2023-04-16T20:02:08.248Z,14.89
2023-04-16T20:04:38.022Z,15.12
2023-04-16T20:07:07.219Z,15.15
2023-04-16T20:09:36.952Z,14.98
2023-04-16T20:12:06.354Z,15.08
2023-04-16T20:14:37.315Z,15.07
2023-04-16T20:17:10.307Z,15.04
2023-04-16T20:19:40.103Z,14.78
2023-04-16T20:22:09.223Z,14.93
2023-04-16T20:24:38.688Z,15.21
2023-04-16T20:27:08.013Z,15.18
2023-04-16T20:29:38.854Z,15.09
2023-04-16T20:32:08.612Z,15.10
2023-04-16T20:34:38.814Z,15.04
2023-04-16T20:37:07.977Z,14.85
2023-04-16T20:39:37.544Z,14.88
2023-04-16T20:42:10.090Z,14.94
2023-04-16T20:44:41.718Z,14.74
2023-04-16T20:47:12.416Z,14.73
2023-04-16T20:49:46.965Z,14.89
2023-04-16T20:52:16.704Z,14.69
2023-04-16T20:54:47.217Z,14.97
2023-04-16T20:57:16.414Z,14.69
2023-04-16T20:59:47.342Z,14.49
2023-04-16T21:02:16.936Z,14.35
2023-04-16T21:04:46.544Z,14.46
2023-04-16T21:07:16.242Z,14.44
2023-04-16T21:09:45.754Z,14.62
2023-04-16T21:12:15.047Z,14.76
2023-04-16T21:14:44.149Z,14.51
2023-04-16T21:17:15.029Z,14.59
2023-04-16T21:19:44.493Z,14.81
2023-04-16T21:22:14.162Z,14.88
2023-04-16T21:24:43.705Z,14.98
2023-04-16T21:27:13.197Z,14.62
2023-04-16T21:29:42.534Z,14.46
2023-04-16T21:32:13.446Z,14.71
2023-04-16T21:34:42.955Z,14.34
2023-04-16T21:37:12.569Z,14.32
2023-04-16T21:39:41.844Z,14.58
2023-04-16T21:42:11.479Z,14.35
2023-04-16T21:44:40.630Z,14.50
2023-04-16T21:47:10.126Z,14.88
2023-04-16T21:49:42.335Z,14.98
2023-04-16T21:52:14.409Z,15.09
2023-04-16T21:54:43.803Z,14.85
2023-04-16T21:57:13.591Z,14.81
2023-04-16T21:59:42.755Z,14.68
2023-04-16T22:02:12.778Z,14.93
2023-04-16T22:04:43.790Z,15.03
2023-04-16T22:07:13.380Z,15.07
2023-04-16T22:09:42.771Z,14.73
2023-04-16T22:12:12.390Z,15.03
2023-04-16T22:14:49.196Z,14.74
2023-04-16T22:17:25.040Z,14.72
2023-04-16T22:19:55.765Z,14.90
2023-04-16T22:22:25.236Z,14.89
2023-04-16T22:24:54.456Z,15.01
2023-04-16T22:27:24.106Z,15.05
2023-04-16T22:29:53.150Z,14.88
2023-04-16T22:32:22.908Z,15.08
2023-04-16T22:34:52.342Z,15.13
2023-04-16T22:37:23.223Z,15.02
2023-04-16T22:39:52.290Z,14.95
2023-04-16T22:42:21.794Z,15.09
2023-04-16T22:44:51.125Z,15.26
2023-04-16T22:47:21.558Z,15.12
2023-04-16T22:49:51.042Z,15.04
2023-04-16T22:52:20.451Z,15.31
2023-04-16T22:54:51.085Z,15.28
2023-04-16T22:57:22.828Z,15.46
2023-04-16T22:59:52.120Z,14.92
2023-04-16T23:02:22.289Z,15.15
2023-04-16T23:04:51.633Z,15.26
2023-04-16T23:07:21.028Z,15.36
2023-04-16T23:09:51.584Z,15.41
2023-04-16T23:12:21.167Z,15.53
2023-04-16T23:14:51.404Z,15.54
2023-04-16T23:17:21.241Z,15.75
2023-04-16T23:19:50.357Z,15.85
2023-04-16T23:22:19.608Z,15.69
2023-04-16T23:24:50.133Z,15.57
2023-04-16T23:27:19.651Z,15.34
2023-04-16T23:29:48.873Z,15.50
2023-04-16T23:32:18.496Z,15.41
2023-04-16T23:34:47.575Z,15.81
2023-04-16T23:37:17.047Z,15.69
2023-04-16T23:39:46.261Z,15.67
2023-04-16T23:42:17.124Z,15.92
2023-04-16T23:44:46.419Z,15.53
2023-04-16T23:47:16.013Z,15.52
2023-04-16T23:49:45.073Z,15.42
2023-04-16T23:52:14.591Z,15.61
2023-04-16T23:54:43.680Z,15.24
2023-04-16T23:57:13.326Z,15.20
2023-04-16T23:59:43.920Z,15.68
